sensor_id;sensor_type;location;lat;lon;timestamp;temperature;humidity
64937;SHT30;51452;47.698;19.050;2022-08-19T00:01:39;27.38;49.91
64937;SHT30;51452;47.698;19.050;2022-08-19T00:04:07;27.37;48.89
64937;SHT30;51452;47.698;19.050;2022-08-19T00:06:33;27.37;49.25
64937;SHT30;51452;47.698;19.050;2022-08-19T00:09:00;27.41;48.40
64937;SHT30;51452;47.698;19.050;2022-08-19T00:11:26;27.43;49.03
64937;SHT30;51452;47.698;19.050;2022-08-19T00:13:54;27.41;49.81
64937;SHT30;51452;47.698;19.050;2022-08-19T00:16:20;27.40;50.04
64937;SHT30;51452;47.698;19.050;2022-08-19T00:18:46;27.40;48.38
64937;SHT30;51452;47.698;19.050;2022-08-19T00:21:12;27.38;48.02
64937;SHT30;51452;47.698;19.050;2022-08-19T00:23:37;27.38;47.87
64937;SHT30;51452;47.698;19.050;2022-08-19T00:26:04;27.40;48.56
64937;SHT30;51452;47.698;19.050;2022-08-19T00:28:30;27.34;48.97
64937;SHT30;51452;47.698;19.050;2022-08-19T00:30:56;27.31;48.40
64937;SHT30;51452;47.698;19.050;2022-08-19T00:33:21;27.26;48.83
64937;SHT30;51452;47.698;19.050;2022-08-19T00:35:46;27.22;48.33
64937;SHT30;51452;47.698;19.050;2022-08-19T00:38:12;27.20;48.40
64937;SHT30;51452;47.698;19.050;2022-08-19T00:40:37;27.22;48.01
64937;SHT30;51452;47.698;19.050;2022-08-19T00:43:08;27.20;48.92
64937;SHT30;51452;47.698;19.050;2022-08-19T00:45:34;27.13;49.35
64937;SHT30;51452;47.698;19.050;2022-08-19T00:48:01;27.10;49.02
64937;SHT30;51452;47.698;19.050;2022-08-19T00:50:29;27.04;49.78
64937;SHT30;51452;47.698;19.050;2022-08-19T00:52:55;27.02;49.50
64937;SHT30;51452;47.698;19.050;2022-08-19T00:55:25;26.97;49.02
64937;SHT30;51452;47.698;19.050;2022-08-19T00:58:03;26.93;49.39
64937;SHT30;51452;47.698;19.050;2022-08-19T01:00:30;26.95;49.45
64937;SHT30;51452;47.698;19.050;2022-08-19T01:02:56;26.93;50.35
64937;SHT30;51452;47.698;19.050;2022-08-19T01:05:26;26.85;50.44
64937;SHT30;51452;47.698;19.050;2022-08-19T01:07:58;26.83;50.42
64937;SHT30;51452;47.698;19.050;2022-08-19T01:10:26;26.82;50.69
64937;SHT30;51452;47.698;19.050;2022-08-19T01:12:53;26.78;51.01
64937;SHT30;51452;47.698;19.050;2022-08-19T01:15:23;26.79;49.99
64937;SHT30;51452;47.698;19.050;2022-08-19T01:17:51;26.79;51.88
64937;SHT30;51452;47.698;19.050;2022-08-19T01:20:21;26.71;52.03
64937;SHT30;51452;47.698;19.050;2022-08-19T01:22:48;26.69;51.47
64937;SHT30;51452;47.698;19.050;2022-08-19T01:25:20;26.66;52.06
64937;SHT30;51452;47.698;19.050;2022-08-19T01:27:49;26.68;52.29
64937;SHT30;51452;47.698;19.050;2022-08-19T01:30:22;26.59;52.55
64937;SHT30;51452;47.698;19.050;2022-08-19T01:32:50;26.52;51.49
64937;SHT30;51452;47.698;19.050;2022-08-19T01:35:16;26.53;50.48
64937;SHT30;51452;47.698;19.050;2022-08-19T01:37:56;26.52;50.33
64937;SHT30;51452;47.698;19.050;2022-08-19T01:40:24;26.56;51.59
64937;SHT30;51452;47.698;19.050;2022-08-19T01:42:52;26.56;51.57
64937;SHT30;51452;47.698;19.050;2022-08-19T01:45:19;26.57;52.15
64937;SHT30;51452;47.698;19.050;2022-08-19T01:47:45;26.41;51.81
64937;SHT30;51452;47.698;19.050;2022-08-19T01:50:12;26.38;50.68
64937;SHT30;51452;47.698;19.050;2022-08-19T01:52:40;26.44;51.22
64937;SHT30;51452;47.698;19.050;2022-08-19T01:55:08;26.44;51.55
64937;SHT30;51452;47.698;19.050;2022-08-19T01:57:34;26.41;51.44
64937;SHT30;51452;47.698;19.050;2022-08-19T02:00:00;26.39;51.60
64937;SHT30;51452;47.698;19.050;2022-08-19T02:02:30;26.41;52.61
64937;SHT30;51452;47.698;19.050;2022-08-19T02:04:55;26.38;54.06
64937;SHT30;51452;47.698;19.050;2022-08-19T02:07:20;26.31;54.30
64937;SHT30;51452;47.698;19.050;2022-08-19T02:09:49;26.28;54.31
64937;SHT30;51452;47.698;19.050;2022-08-19T02:12:14;26.21;53.91
64937;SHT30;51452;47.698;19.050;2022-08-19T02:14:40;26.28;56.37
64937;SHT30;51452;47.698;19.050;2022-08-19T02:17:05;26.18;57.88
64937;SHT30;51452;47.698;19.050;2022-08-19T02:19:31;26.09;57.13
64937;SHT30;51452;47.698;19.050;2022-08-19T02:21:58;26.02;56.28
64937;SHT30;51452;47.698;19.050;2022-08-19T02:24:24;26.02;57.48
64937;SHT30;51452;47.698;19.050;2022-08-19T02:26:49;25.93;58.10
64937;SHT30;51452;47.698;19.050;2022-08-19T02:29:15;25.90;55.96
64937;SHT30;51452;47.698;19.050;2022-08-19T02:31:40;25.85;54.61
64937;SHT30;51452;47.698;19.050;2022-08-19T02:34:05;25.84;57.67
64937;SHT30;51452;47.698;19.050;2022-08-19T02:36:31;25.78;55.20
64937;SHT30;51452;47.698;19.050;2022-08-19T02:38:56;25.76;56.91
64937;SHT30;51452;47.698;19.050;2022-08-19T02:41:26;25.69;55.51
64937;SHT30;51452;47.698;19.050;2022-08-19T02:43:51;25.74;55.87
64937;SHT30;51452;47.698;19.050;2022-08-19T02:46:29;25.66;54.72
64937;SHT30;51452;47.698;19.050;2022-08-19T02:48:58;25.66;57.27
64937;SHT30;51452;47.698;19.050;2022-08-19T02:51:28;25.64;54.33
64937;SHT30;51452;47.698;19.050;2022-08-19T02:53:54;25.60;55.57
64937;SHT30;51452;47.698;19.050;2022-08-19T02:56:20;25.62;54.31
64937;SHT30;51452;47.698;19.050;2022-08-19T02:58:47;25.64;53.83
64937;SHT30;51452;47.698;19.050;2022-08-19T03:01:20;25.71;52.11
64937;SHT30;51452;47.698;19.050;2022-08-19T03:03:46;25.80;52.74
64937;SHT30;51452;47.698;19.050;2022-08-19T03:06:14;25.84;53.31
64937;SHT30;51452;47.698;19.050;2022-08-19T03:08:42;25.88;55.42
64937;SHT30;51452;47.698;19.050;2022-08-19T03:11:14;25.81;56.16
64937;SHT30;51452;47.698;19.050;2022-08-19T03:13:40;25.76;55.52
64937;SHT30;51452;47.698;19.050;2022-08-19T03:16:05;25.74;53.92
64937;SHT30;51452;47.698;19.050;2022-08-19T03:18:31;25.76;54.54
64937;SHT30;51452;47.698;19.050;2022-08-19T03:20:56;25.77;54.21
64937;SHT30;51452;47.698;19.050;2022-08-19T03:23:22;25.69;52.50
64937;SHT30;51452;47.698;19.050;2022-08-19T03:25:49;25.78;53.64
64937;SHT30;51452;47.698;19.050;2022-08-19T03:28:16;25.84;53.96
64937;SHT30;51452;47.698;19.050;2022-08-19T03:30:53;25.90;55.22
64937;SHT30;51452;47.698;19.050;2022-08-19T03:33:21;25.77;54.45
64937;SHT30;51452;47.698;19.050;2022-08-19T03:35:46;25.80;52.35
64937;SHT30;51452;47.698;19.050;2022-08-19T03:38:12;25.83;53.94
64937;SHT30;51452;47.698;19.050;2022-08-19T03:40:37;25.83;54.15
64937;SHT30;51452;47.698;19.050;2022-08-19T03:43:03;25.81;55.36
64937;SHT30;51452;47.698;19.050;2022-08-19T03:45:28;25.81;53.80
64937;SHT30;51452;47.698;19.050;2022-08-19T03:47:54;25.80;54.74
64937;SHT30;51452;47.698;19.050;2022-08-19T03:50:20;25.76;54.02
64937;SHT30;51452;47.698;19.050;2022-08-19T03:52:51;25.73;53.91
64937;SHT30;51452;47.698;19.050;2022-08-19T03:55:18;25.80;53.48
64937;SHT30;51452;47.698;19.050;2022-08-19T03:57:43;25.81;53.69
64937;SHT30;51452;47.698;19.050;2022-08-19T04:00:10;25.76;53.65
64937;SHT30;51452;47.698;19.050;2022-08-19T04:02:36;25.78;53.53
64937;SHT30;51452;47.698;19.050;2022-08-19T04:05:01;25.80;54.00
64937;SHT30;51452;47.698;19.050;2022-08-19T04:07:27;25.67;52.13
64937;SHT30;51452;47.698;19.050;2022-08-19T04:09:52;25.76;51.76
64937;SHT30;51452;47.698;19.050;2022-08-19T04:12:18;25.74;52.51
64937;SHT30;51452;47.698;19.050;2022-08-19T04:14:45;25.80;54.78
64937;SHT30;51452;47.698;19.050;2022-08-19T04:17:10;25.81;55.17
64937;SHT30;51452;47.698;19.050;2022-08-19T04:19:38;25.77;55.77
64937;SHT30;51452;47.698;19.050;2022-08-19T04:22:04;25.80;55.53
64937;SHT30;51452;47.698;19.050;2022-08-19T04:24:29;25.77;56.25
64937;SHT30;51452;47.698;19.050;2022-08-19T04:26:55;25.64;54.62
64937;SHT30;51452;47.698;19.050;2022-08-19T04:29:23;25.71;55.55
64937;SHT30;51452;47.698;19.050;2022-08-19T04:31:50;25.74;56.66
64937;SHT30;51452;47.698;19.050;2022-08-19T04:34:17;25.63;53.25
64937;SHT30;51452;47.698;19.050;2022-08-19T04:36:47;25.73;53.74
64937;SHT30;51452;47.698;19.050;2022-08-19T04:39:15;25.83;53.46
64937;SHT30;51452;47.698;19.050;2022-08-19T04:41:41;25.78;52.86
64937;SHT30;51452;47.698;19.050;2022-08-19T04:44:25;25.73;52.60
64937;SHT30;51452;47.698;19.050;2022-08-19T04:46:51;25.98;52.38
64937;SHT30;51452;47.698;19.050;2022-08-19T04:49:21;26.00;51.69
64937;SHT30;51452;47.698;19.050;2022-08-19T04:51:47;26.02;52.19
64937;SHT30;51452;47.698;19.050;2022-08-19T04:54:15;26.09;52.81
64937;SHT30;51452;47.698;19.050;2022-08-19T04:56:40;26.11;53.04
64937;SHT30;51452;47.698;19.050;2022-08-19T04:59:06;26.02;52.95
64937;SHT30;51452;47.698;19.050;2022-08-19T05:01:33;26.02;52.36
64937;SHT30;51452;47.698;19.050;2022-08-19T05:04:01;25.97;51.53
64937;SHT30;51452;47.698;19.050;2022-08-19T05:06:28;25.90;51.32
64937;SHT30;51452;47.698;19.050;2022-08-19T05:08:54;26.00;51.27
64937;SHT30;51452;47.698;19.050;2022-08-19T05:11:24;26.05;51.24
64937;SHT30;51452;47.698;19.050;2022-08-19T05:13:49;26.00;51.36
64937;SHT30;51452;47.698;19.050;2022-08-19T05:16:17;25.95;51.58
64937;SHT30;51452;47.698;19.050;2022-08-19T05:18:43;26.02;51.21
64937;SHT30;51452;47.698;19.050;2022-08-19T05:21:28;25.98;51.04
64937;SHT30;51452;47.698;19.050;2022-08-19T05:24:23;26.11;50.63
64937;SHT30;51452;47.698;19.050;2022-08-19T05:26:50;26.18;50.25
64937;SHT30;51452;47.698;19.050;2022-08-19T05:29:18;26.07;50.61
64937;SHT30;51452;47.698;19.050;2022-08-19T05:31:44;26.20;50.50
64937;SHT30;51452;47.698;19.050;2022-08-19T05:34:11;26.25;50.71
64937;SHT30;51452;47.698;19.050;2022-08-19T05:36:41;26.25;50.65
64937;SHT30;51452;47.698;19.050;2022-08-19T05:39:09;26.31;50.50
64937;SHT30;51452;47.698;19.050;2022-08-19T05:41:35;26.34;50.29
64937;SHT30;51452;47.698;19.050;2022-08-19T05:44:04;26.31;50.23
64937;SHT30;51452;47.698;19.050;2022-08-19T05:46:31;26.18;50.37
64937;SHT30;51452;47.698;19.050;2022-08-19T05:48:57;26.34;50.15
64937;SHT30;51452;47.698;19.050;2022-08-19T05:51:23;26.42;50.04
64937;SHT30;51452;47.698;19.050;2022-08-19T05:53:50;26.46;50.14
64937;SHT30;51452;47.698;19.050;2022-08-19T05:56:16;26.55;49.92
64937;SHT30;51452;47.698;19.050;2022-08-19T05:58:43;26.63;49.67
64937;SHT30;51452;47.698;19.050;2022-08-19T06:01:12;26.75;49.99
64937;SHT30;51452;47.698;19.050;2022-08-19T06:03:38;26.66;49.71
64937;SHT30;51452;47.698;19.050;2022-08-19T06:06:05;26.85;49.71
64937;SHT30;51452;47.698;19.050;2022-08-19T06:08:31;26.76;49.48
64937;SHT30;51452;47.698;19.050;2022-08-19T06:10:57;26.87;48.80
64937;SHT30;51452;47.698;19.050;2022-08-19T06:13:23;26.80;48.96
64937;SHT30;51452;47.698;19.050;2022-08-19T06:15:49;26.95;49.24
64937;SHT30;51452;47.698;19.050;2022-08-19T06:18:15;26.92;48.84
64937;SHT30;51452;47.698;19.050;2022-08-19T06:20:42;26.93;49.40
64937;SHT30;51452;47.698;19.050;2022-08-19T06:23:08;26.93;48.62
64937;SHT30;51452;47.698;19.050;2022-08-19T06:25:34;27.02;48.42
64937;SHT30;51452;47.698;19.050;2022-08-19T06:27:59;27.10;48.39
64937;SHT30;51452;47.698;19.050;2022-08-19T06:30:24;27.08;48.19
64937;SHT30;51452;47.698;19.050;2022-08-19T06:32:50;27.13;48.20
64937;SHT30;51452;47.698;19.050;2022-08-19T06:35:15;27.24;48.57
64937;SHT30;51452;47.698;19.050;2022-08-19T06:37:41;27.31;48.76
64937;SHT30;51452;47.698;19.050;2022-08-19T06:40:08;27.41;48.23
64937;SHT30;51452;47.698;19.050;2022-08-19T06:42:34;27.41;47.95
64937;SHT30;51452;47.698;19.050;2022-08-19T06:45:00;27.55;49.02
64937;SHT30;51452;47.698;19.050;2022-08-19T06:47:29;27.58;46.98
64937;SHT30;51452;47.698;19.050;2022-08-19T06:49:58;27.69;47.46
64937;SHT30;51452;47.698;19.050;2022-08-19T06:52:33;27.69;48.42
64937;SHT30;51452;47.698;19.050;2022-08-19T06:54:59;27.84;47.28
64937;SHT30;51452;47.698;19.050;2022-08-19T06:57:26;27.85;47.66
64937;SHT30;51452;47.698;19.050;2022-08-19T06:59:52;27.98;47.00
64937;SHT30;51452;47.698;19.050;2022-08-19T07:02:18;28.01;46.41
64937;SHT30;51452;47.698;19.050;2022-08-19T07:04:44;28.06;46.88
64937;SHT30;51452;47.698;19.050;2022-08-19T07:07:12;28.02;47.29
64937;SHT30;51452;47.698;19.050;2022-08-19T07:09:41;28.26;46.69
64937;SHT30;51452;47.698;19.050;2022-08-19T07:12:09;28.31;47.01
64937;SHT30;51452;47.698;19.050;2022-08-19T07:14:37;28.36;46.56
64937;SHT30;51452;47.698;19.050;2022-08-19T07:17:05;28.49;46.80
64937;SHT30;51452;47.698;19.050;2022-08-19T07:19:32;28.57;46.52
64937;SHT30;51452;47.698;19.050;2022-08-19T07:21:58;28.53;45.99
64937;SHT30;51452;47.698;19.050;2022-08-19T07:24:26;28.59;46.72
64937;SHT30;51452;47.698;19.050;2022-08-19T07:26:55;28.68;46.06
64937;SHT30;51452;47.698;19.050;2022-08-19T07:29:22;28.73;45.34
64937;SHT30;51452;47.698;19.050;2022-08-19T07:31:49;28.66;45.96
64937;SHT30;51452;47.698;19.050;2022-08-19T07:34:15;28.70;45.90
64937;SHT30;51452;47.698;19.050;2022-08-19T07:36:42;28.83;46.97
64937;SHT30;51452;47.698;19.050;2022-08-19T07:39:14;28.91;46.00
64937;SHT30;51452;47.698;19.050;2022-08-19T07:41:40;28.81;45.06
64937;SHT30;51452;47.698;19.050;2022-08-19T07:44:06;29.03;46.10
64937;SHT30;51452;47.698;19.050;2022-08-19T07:46:35;29.04;46.25
64937;SHT30;51452;47.698;19.050;2022-08-19T07:49:01;29.01;45.35
64937;SHT30;51452;47.698;19.050;2022-08-19T07:51:27;29.22;45.40
64937;SHT30;51452;47.698;19.050;2022-08-19T07:53:52;29.31;45.65
64937;SHT30;51452;47.698;19.050;2022-08-19T07:56:19;29.39;44.95
64937;SHT30;51452;47.698;19.050;2022-08-19T07:58:47;29.38;45.36
64937;SHT30;51452;47.698;19.050;2022-08-19T08:01:16;29.51;45.74
64937;SHT30;51452;47.698;19.050;2022-08-19T08:03:42;29.56;45.42
64937;SHT30;51452;47.698;19.050;2022-08-19T08:06:26;29.65;44.99
64937;SHT30;51452;47.698;19.050;2022-08-19T08:09:11;29.77;45.11
64937;SHT30;51452;47.698;19.050;2022-08-19T08:12:08;29.80;44.72
64937;SHT30;51452;47.698;19.050;2022-08-19T08:14:38;29.83;44.37
64937;SHT30;51452;47.698;19.050;2022-08-19T08:17:05;29.96;43.98
64937;SHT30;51452;47.698;19.050;2022-08-19T08:19:31;30.04;44.01
64937;SHT30;51452;47.698;19.050;2022-08-19T08:21:59;30.12;43.52
64937;SHT30;51452;47.698;19.050;2022-08-19T08:24:26;30.14;43.31
64937;SHT30;51452;47.698;19.050;2022-08-19T08:26:52;30.33;43.41
64937;SHT30;51452;47.698;19.050;2022-08-19T08:29:17;30.34;43.32
64937;SHT30;51452;47.698;19.050;2022-08-19T08:31:45;30.38;43.12
64937;SHT30;51452;47.698;19.050;2022-08-19T08:34:11;30.37;42.15
64937;SHT30;51452;47.698;19.050;2022-08-19T08:36:38;30.49;42.31
64937;SHT30;51452;47.698;19.050;2022-08-19T08:39:08;30.57;42.11
64937;SHT30;51452;47.698;19.050;2022-08-19T08:41:43;30.49;42.58
64937;SHT30;51452;47.698;19.050;2022-08-19T08:44:15;30.58;41.70
64937;SHT30;51452;47.698;19.050;2022-08-19T08:46:47;30.47;45.53
64937;SHT30;51452;47.698;19.050;2022-08-19T08:49:24;30.67;42.13
64937;SHT30;51452;47.698;19.050;2022-08-19T08:54:44;30.78;41.48
64937;SHT30;51452;47.698;19.050;2022-08-19T08:57:15;30.85;40.64
64937;SHT30;51452;47.698;19.050;2022-08-19T08:59:46;30.88;41.23
64937;SHT30;51452;47.698;19.050;2022-08-19T09:02:16;30.91;40.78
64937;SHT30;51452;47.698;19.050;2022-08-19T09:04:41;31.06;40.30
64937;SHT30;51452;47.698;19.050;2022-08-19T09:09:56;30.98;40.24
64937;SHT30;51452;47.698;19.050;2022-08-19T09:15:11;31.05;40.01
64937;SHT30;51452;47.698;19.050;2022-08-19T09:17:38;31.08;39.74
64937;SHT30;51452;47.698;19.050;2022-08-19T09:20:05;31.18;39.61
64937;SHT30;51452;47.698;19.050;2022-08-19T09:22:34;31.26;39.19
64937;SHT30;51452;47.698;19.050;2022-08-19T09:25:00;31.34;40.08
64937;SHT30;51452;47.698;19.050;2022-08-19T09:27:27;31.50;39.24
64937;SHT30;51452;47.698;19.050;2022-08-19T09:29:53;31.47;38.34
64937;SHT30;51452;47.698;19.050;2022-08-19T09:32:20;31.53;39.40
64937;SHT30;51452;47.698;19.050;2022-08-19T09:34:46;31.63;39.26
64937;SHT30;51452;47.698;19.050;2022-08-19T09:37:11;31.62;38.17
64937;SHT30;51452;47.698;19.050;2022-08-19T09:39:38;31.84;38.45
64937;SHT30;51452;47.698;19.050;2022-08-19T09:42:04;31.80;38.80
64937;SHT30;51452;47.698;19.050;2022-08-19T09:44:30;31.90;39.33
64937;SHT30;51452;47.698;19.050;2022-08-19T09:46:55;31.95;38.66
64937;SHT30;51452;47.698;19.050;2022-08-19T09:49:21;31.90;37.46
64937;SHT30;51452;47.698;19.050;2022-08-19T09:51:50;31.97;37.15
64937;SHT30;51452;47.698;19.050;2022-08-19T09:54:17;32.04;37.88
64937;SHT30;51452;47.698;19.050;2022-08-19T09:56:42;32.21;36.86
64937;SHT30;51452;47.698;19.050;2022-08-19T09:59:08;32.25;37.50
64937;SHT30;51452;47.698;19.050;2022-08-19T10:01:35;32.24;38.46
64937;SHT30;51452;47.698;19.050;2022-08-19T10:04:00;32.24;37.53
64937;SHT30;51452;47.698;19.050;2022-08-19T10:06:29;32.45;37.18
64937;SHT30;51452;47.698;19.050;2022-08-19T10:08:58;32.42;36.22
64937;SHT30;51452;47.698;19.050;2022-08-19T10:11:24;32.48;36.54
64937;SHT30;51452;47.698;19.050;2022-08-19T10:13:49;32.61;36.95
64937;SHT30;51452;47.698;19.050;2022-08-19T10:16:18;32.68;36.51
64937;SHT30;51452;47.698;19.050;2022-08-19T10:18:45;32.72;36.92
64937;SHT30;51452;47.698;19.050;2022-08-19T10:21:24;32.72;36.27
64937;SHT30;51452;47.698;19.050;2022-08-19T10:23:52;32.84;35.98
64937;SHT30;51452;47.698;19.050;2022-08-19T10:26:24;32.93;36.63
64937;SHT30;51452;47.698;19.050;2022-08-19T10:28:49;32.95;35.62
64937;SHT30;51452;47.698;19.050;2022-08-19T10:31:20;32.96;35.44
64937;SHT30;51452;47.698;19.050;2022-08-19T10:33:47;33.04;35.24
64937;SHT30;51452;47.698;19.050;2022-08-19T10:36:20;33.10;35.14
64937;SHT30;51452;47.698;19.050;2022-08-19T10:38:49;33.14;35.55
64937;SHT30;51452;47.698;19.050;2022-08-19T10:41:21;33.14;35.82
64937;SHT30;51452;47.698;19.050;2022-08-19T10:43:51;33.30;35.51
64937;SHT30;51452;47.698;19.050;2022-08-19T10:46:17;33.24;36.55
64937;SHT30;51452;47.698;19.050;2022-08-19T10:48:44;33.17;37.18
64937;SHT30;51452;47.698;19.050;2022-08-19T10:51:09;33.26;35.31
64937;SHT30;51452;47.698;19.050;2022-08-19T10:53:54;33.17;36.93
64937;SHT30;51452;47.698;19.050;2022-08-19T10:56:21;33.30;35.45
64937;SHT30;51452;47.698;19.050;2022-08-19T10:59:05;33.35;34.27
64937;SHT30;51452;47.698;19.050;2022-08-19T11:01:32;33.43;35.76
64937;SHT30;51452;47.698;19.050;2022-08-19T11:03:59;33.43;33.94
64937;SHT30;51452;47.698;19.050;2022-08-19T11:06:25;33.40;35.29
64937;SHT30;51452;47.698;19.050;2022-08-19T11:08:52;33.40;34.50
64937;SHT30;51452;47.698;19.050;2022-08-19T11:11:17;33.37;34.35
64937;SHT30;51452;47.698;19.050;2022-08-19T11:13:43;33.47;34.87
64937;SHT30;51452;47.698;19.050;2022-08-19T11:16:17;33.53;34.44
64937;SHT30;51452;47.698;19.050;2022-08-19T11:18:48;33.55;34.78
64937;SHT30;51452;47.698;19.050;2022-08-19T11:21:20;33.62;34.20
64937;SHT30;51452;47.698;19.050;2022-08-19T11:23:47;33.62;34.23
64937;SHT30;51452;47.698;19.050;2022-08-19T11:26:14;33.62;34.68
64937;SHT30;51452;47.698;19.050;2022-08-19T11:28:39;33.67;34.96
64937;SHT30;51452;47.698;19.050;2022-08-19T11:31:15;33.75;35.52
64937;SHT30;51452;47.698;19.050;2022-08-19T11:33:41;33.82;34.88
64937;SHT30;51452;47.698;19.050;2022-08-19T11:36:07;33.74;34.40
64937;SHT30;51452;47.698;19.050;2022-08-19T11:38:34;33.78;34.17
64937;SHT30;51452;47.698;19.050;2022-08-19T11:41:02;33.87;33.98
64937;SHT30;51452;47.698;19.050;2022-08-19T11:43:29;33.94;35.01
64937;SHT30;51452;47.698;19.050;2022-08-19T11:45:55;33.94;34.45
64937;SHT30;51452;47.698;19.050;2022-08-19T11:48:21;34.01;33.90
64937;SHT30;51452;47.698;19.050;2022-08-19T11:50:52;34.02;32.80
64937;SHT30;51452;47.698;19.050;2022-08-19T11:53:19;34.06;33.34
64937;SHT30;51452;47.698;19.050;2022-08-19T11:55:46;34.04;32.46
64937;SHT30;51452;47.698;19.050;2022-08-19T11:58:15;34.15;32.46
64937;SHT30;51452;47.698;19.050;2022-08-19T12:00:41;34.13;33.22
64937;SHT30;51452;47.698;19.050;2022-08-19T12:03:07;34.19;33.03
64937;SHT30;51452;47.698;19.050;2022-08-19T12:05:33;34.32;32.91
64937;SHT30;51452;47.698;19.050;2022-08-19T12:07:59;34.46;32.33
64937;SHT30;51452;47.698;19.050;2022-08-19T12:10:24;34.48;32.15
64937;SHT30;51452;47.698;19.050;2022-08-19T12:12:50;34.46;32.15
64937;SHT30;51452;47.698;19.050;2022-08-19T12:15:15;34.33;32.84
64937;SHT30;51452;47.698;19.050;2022-08-19T12:17:41;34.33;32.66
64937;SHT30;51452;47.698;19.050;2022-08-19T12:20:09;34.42;34.51
64937;SHT30;51452;47.698;19.050;2022-08-19T12:22:39;34.35;32.38
64937;SHT30;51452;47.698;19.050;2022-08-19T12:25:07;34.31;32.35
64937;SHT30;51452;47.698;19.050;2022-08-19T12:27:32;34.42;31.96
64937;SHT30;51452;47.698;19.050;2022-08-19T12:29:57;34.49;31.86
64937;SHT30;51452;47.698;19.050;2022-08-19T12:32:26;34.52;32.22
64937;SHT30;51452;47.698;19.050;2022-08-19T12:34:52;34.57;31.36
64937;SHT30;51452;47.698;19.050;2022-08-19T12:37:17;34.57;32.46
64937;SHT30;51452;47.698;19.050;2022-08-19T12:39:43;34.76;32.85
64937;SHT30;51452;47.698;19.050;2022-08-19T12:42:11;34.89;32.50
64937;SHT30;51452;47.698;19.050;2022-08-19T12:44:37;34.76;30.86
64937;SHT30;51452;47.698;19.050;2022-08-19T12:47:04;34.97;32.31
64937;SHT30;51452;47.698;19.050;2022-08-19T12:49:31;34.99;31.79
64937;SHT30;51452;47.698;19.050;2022-08-19T12:51:59;35.08;31.27
64937;SHT30;51452;47.698;19.050;2022-08-19T12:54:25;35.10;31.00
64937;SHT30;51452;47.698;19.050;2022-08-19T12:56:51;35.14;31.28
64937;SHT30;51452;47.698;19.050;2022-08-19T12:59:16;35.08;30.72
64937;SHT30;51452;47.698;19.050;2022-08-19T13:01:43;35.08;30.80
64937;SHT30;51452;47.698;19.050;2022-08-19T13:04:09;35.17;31.05
64937;SHT30;51452;47.698;19.050;2022-08-19T13:06:35;35.06;30.92
64937;SHT30;51452;47.698;19.050;2022-08-19T13:09:01;35.20;30.82
64937;SHT30;51452;47.698;19.050;2022-08-19T13:11:27;35.20;30.56
64937;SHT30;51452;47.698;19.050;2022-08-19T13:13:57;35.15;29.96
64937;SHT30;51452;47.698;19.050;2022-08-19T13:16:23;35.17;30.42
64937;SHT30;51452;47.698;19.050;2022-08-19T13:18:48;35.21;30.12
64937;SHT30;51452;47.698;19.050;2022-08-19T13:21:17;35.26;30.29
64937;SHT30;51452;47.698;19.050;2022-08-19T13:23:45;35.38;30.70
64937;SHT30;51452;47.698;19.050;2022-08-19T13:26:11;35.47;30.49
64937;SHT30;51452;47.698;19.050;2022-08-19T13:28:38;35.34;31.75
64937;SHT30;51452;47.698;19.050;2022-08-19T13:31:24;35.41;33.01
64937;SHT30;51452;47.698;19.050;2022-08-19T13:34:09;35.21;30.13
64937;SHT30;51452;47.698;19.050;2022-08-19T13:36:36;35.26;31.89
64937;SHT30;51452;47.698;19.050;2022-08-19T13:39:02;35.14;30.97
64937;SHT30;51452;47.698;19.050;2022-08-19T13:41:28;35.07;32.40
64937;SHT30;51452;47.698;19.050;2022-08-19T13:43:53;35.01;33.39
64937;SHT30;51452;47.698;19.050;2022-08-19T13:46:19;34.96;31.01
64937;SHT30;51452;47.698;19.050;2022-08-19T13:48:45;34.83;30.84
64937;SHT30;51452;47.698;19.050;2022-08-19T13:51:10;34.83;31.48
64937;SHT30;51452;47.698;19.050;2022-08-19T13:53:37;34.79;31.39
64937;SHT30;51452;47.698;19.050;2022-08-19T13:56:06;34.94;31.21
64937;SHT30;51452;47.698;19.050;2022-08-19T13:58:33;34.97;31.54
64937;SHT30;51452;47.698;19.050;2022-08-19T14:00:58;34.97;32.02
64937;SHT30;51452;47.698;19.050;2022-08-19T14:03:25;34.80;31.27
64937;SHT30;51452;47.698;19.050;2022-08-19T14:05:50;34.79;32.60
64937;SHT30;51452;47.698;19.050;2022-08-19T14:08:16;34.55;30.11
64937;SHT30;51452;47.698;19.050;2022-08-19T14:10:42;34.46;32.82
64937;SHT30;51452;47.698;19.050;2022-08-19T14:13:09;34.08;34.37
64937;SHT30;51452;47.698;19.050;2022-08-19T14:15:35;34.06;34.37
64937;SHT30;51452;47.698;19.050;2022-08-19T14:18:02;33.91;36.12
64937;SHT30;51452;47.698;19.050;2022-08-19T14:20:28;33.78;34.83
64937;SHT30;51452;47.698;19.050;2022-08-19T14:22:54;33.81;37.02
64937;SHT30;51452;47.698;19.050;2022-08-19T14:25:26;33.60;35.78
64937;SHT30;51452;47.698;19.050;2022-08-19T14:27:52;33.51;36.10
64937;SHT30;51452;47.698;19.050;2022-08-19T14:30:26;33.22;36.45
64937;SHT30;51452;47.698;19.050;2022-08-19T14:32:56;33.07;37.04
64937;SHT30;51452;47.698;19.050;2022-08-19T14:35:23;32.89;37.96
64937;SHT30;51452;47.698;19.050;2022-08-19T14:37:50;32.72;37.81
64937;SHT30;51452;47.698;19.050;2022-08-19T14:40:19;32.66;37.96
64937;SHT30;51452;47.698;19.050;2022-08-19T14:42:47;32.53;38.55
64937;SHT30;51452;47.698;19.050;2022-08-19T14:45:13;32.39;38.01
64937;SHT30;51452;47.698;19.050;2022-08-19T14:47:39;32.29;38.27
64937;SHT30;51452;47.698;19.050;2022-08-19T14:50:09;32.22;38.25
64937;SHT30;51452;47.698;19.050;2022-08-19T14:52:34;32.04;38.80
64937;SHT30;51452;47.698;19.050;2022-08-19T14:55:00;31.93;39.05
64937;SHT30;51452;47.698;19.050;2022-08-19T14:57:25;31.64;39.56
64937;SHT30;51452;47.698;19.050;2022-08-19T14:59:51;31.51;39.84
64937;SHT30;51452;47.698;19.050;2022-08-19T15:02:16;31.37;39.80
64937;SHT30;51452;47.698;19.050;2022-08-19T15:04:42;31.18;39.92
64937;SHT30;51452;47.698;19.050;2022-08-19T15:07:07;31.27;40.29
64937;SHT30;51452;47.698;19.050;2022-08-19T15:09:33;31.18;39.82
64937;SHT30;51452;47.698;19.050;2022-08-19T15:11:59;31.23;40.37
64937;SHT30;51452;47.698;19.050;2022-08-19T15:14:26;31.06;39.82
64937;SHT30;51452;47.698;19.050;2022-08-19T15:16:52;31.03;39.04
64937;SHT30;51452;47.698;19.050;2022-08-19T15:19:18;31.00;38.40
64937;SHT30;51452;47.698;19.050;2022-08-19T15:21:43;30.94;38.24
64937;SHT30;51452;47.698;19.050;2022-08-19T15:24:09;30.91;37.44
64937;SHT30;51452;47.698;19.050;2022-08-19T15:26:34;30.96;37.86